Arthur, Nevada
Current Conditions -  °F | °C
As of 1:35 PM on Wednesday 17 Dec 2014 (Local Time) from KENV Reporting Station
Clear Clear  
Wind Chill:   Ceiling: Unl
Heat Index:   Visibility: 10mi
Dew Point: -3°   Wind: 5mph
Humidity: 65%   Direction: 130°SE
Pressure: 29.98"   Gusts: NA
Location:  41.0114°N, 114.57°W
Report Text: KENV 172135Z AUTO 13004KT 10SM CLR 03/M03 A2998 RMK AO1
Loading
Personal Weather Stations






























Interactive Weather Map New forecast layout! Learn more

10-Day Weather Forecast

Advertisements
Track Severe Weather on mobile